createdAt,value
2017-09-08T00:00:38.026Z,86.40
2017-09-08T00:01:40.539Z,86.30
2017-09-08T00:02:44.024Z,86.80
2017-09-08T00:03:46.573Z,86.20
2017-09-08T00:04:51.043Z,85.90
2017-09-08T00:05:53.549Z,86.00
2017-09-08T00:06:56.043Z,85.80
2017-09-08T00:07:59.030Z,85.80
2017-09-08T00:09:01.518Z,85.70
2017-09-08T00:10:04.082Z,85.40
2017-09-08T00:11:11.162Z,85.30
2017-09-08T00:12:13.680Z,85.10
2017-09-08T00:13:16.206Z,85.00
2017-09-08T00:14:18.730Z,85.00
2017-09-08T00:15:22.837Z,84.80
2017-09-08T00:16:25.343Z,84.90
2017-09-08T00:17:27.883Z,85.00
2017-09-08T00:18:30.525Z,85.00
2017-09-08T00:19:33.078Z,84.60
2017-09-08T00:20:35.625Z,84.50
2017-09-08T00:21:38.123Z,84.40
2017-09-08T00:22:40.670Z,84.30
2017-09-08T00:23:43.783Z,84.20
2017-09-08T00:24:46.293Z,83.80
2017-09-08T00:25:48.814Z,83.90
2017-09-08T00:26:52.829Z,83.80
2017-09-08T00:27:55.380Z,83.60
2017-09-08T00:28:57.915Z,83.60
2017-09-08T00:30:04.316Z,83.50
2017-09-08T00:31:06.814Z,83.30
2017-09-08T00:32:09.334Z,83.00
2017-09-08T00:33:13.336Z,82.90
2017-09-08T00:34:16.563Z,82.60
2017-09-08T00:35:19.288Z,82.70
2017-09-08T00:36:21.779Z,82.60
2017-09-08T00:37:24.353Z,82.60
2017-09-08T00:38:26.908Z,82.80
2017-09-08T00:39:29.465Z,82.70
2017-09-08T00:40:32.095Z,82.70
2017-09-08T00:41:34.600Z,82.60
2017-09-08T00:42:37.148Z,82.80
2017-09-08T00:43:39.750Z,82.60
2017-09-08T00:44:42.265Z,83.50
2017-09-08T00:45:45.611Z,82.70
2017-09-08T00:46:48.202Z,83.20
2017-09-08T00:47:50.738Z,83.20
2017-09-08T00:48:53.266Z,83.00
2017-09-08T00:49:55.822Z,83.40
2017-09-08T00:50:58.334Z,83.80
2017-09-08T00:52:00.863Z,83.40
2017-09-08T00:53:04.110Z,83.60
2017-09-08T00:54:06.602Z,84.00
2017-09-08T00:55:09.512Z,84.30
2017-09-08T00:56:15.883Z,84.70
2017-09-08T00:57:18.401Z,84.80
2017-09-08T00:58:20.919Z,85.20
2017-09-08T00:59:24.764Z,85.10
2017-09-08T01:00:27.263Z,85.40
2017-09-08T01:01:33.633Z,86.00
2017-09-08T01:02:36.251Z,86.20
2017-09-08T01:03:38.830Z,86.60
2017-09-08T01:04:41.355Z,86.90
2017-09-08T01:05:44.479Z,86.90
2017-09-08T01:06:46.994Z,86.90
2017-09-08T01:07:49.495Z,87.20
2017-09-08T01:08:52.009Z,88.10
2017-09-08T01:09:54.532Z,88.20
2017-09-08T01:10:57.006Z,88.30
2017-09-08T01:11:59.518Z,88.70
2017-09-08T01:13:02.023Z,88.60
2017-09-08T01:14:04.523Z,89.00
2017-09-08T01:15:07.054Z,89.20
2017-09-08T01:16:09.593Z,89.60
2017-09-08T01:17:12.072Z,90.00
2017-09-08T01:18:14.574Z,90.10
2017-09-08T01:19:17.079Z,90.10
2017-09-08T01:20:20.417Z,90.30
2017-09-08T01:21:22.899Z,90.70
2017-09-08T01:22:25.405Z,90.60
2017-09-08T01:23:27.910Z,90.50
2017-09-08T01:24:30.381Z,90.30
2017-09-08T01:25:32.866Z,90.50
2017-09-08T01:26:35.344Z,90.50
2017-09-08T01:27:39.583Z,90.50
2017-09-08T01:28:42.136Z,90.60
2017-09-08T01:29:45.603Z,90.60
2017-09-08T01:30:48.095Z,90.90
2017-09-08T01:31:50.668Z,90.90
2017-09-08T01:32:53.151Z,90.90
2017-09-08T01:33:55.714Z,91.00
2017-09-08T01:34:58.206Z,91.00
2017-09-08T01:36:00.743Z,91.10
2017-09-08T01:37:03.234Z,91.20
2017-09-08T01:38:06.496Z,91.10
2017-09-08T01:39:09.006Z,91.20
2017-09-08T01:40:11.506Z,91.20
2017-09-08T01:41:13.998Z,91.20
2017-09-08T01:42:16.495Z,91.20
2017-09-08T01:43:18.999Z,91.20
2017-09-08T01:44:21.621Z,91.30
2017-09-08T01:45:24.295Z,91.70
2017-09-08T01:46:27.024Z,91.40
2017-09-08T01:47:33.617Z,91.30
2017-09-08T01:48:37.138Z,91.20
2017-09-08T01:49:39.836Z,91.40
2017-09-08T01:50:42.555Z,91.50
2017-09-08T01:51:46.080Z,91.40
2017-09-08T01:52:48.613Z,91.50
2017-09-08T01:53:51.729Z,91.40
2017-09-08T01:54:55.237Z,91.40
2017-09-08T01:55:58.163Z,91.60
2017-09-08T01:57:00.640Z,91.40
2017-09-08T01:58:03.445Z,91.40
2017-09-08T01:59:06.127Z,91.60
2017-09-08T02:00:10.400Z,91.60
2017-09-08T02:01:13.968Z,91.70
2017-09-08T02:02:16.603Z,91.60
2017-09-08T02:03:19.179Z,91.50
2017-09-08T02:04:22.969Z,91.50
2017-09-08T02:05:26.567Z,91.60
2017-09-08T02:06:30.128Z,91.50
2017-09-08T02:07:32.788Z,91.50
2017-09-08T02:08:35.347Z,91.50
2017-09-08T02:09:41.596Z,91.70
2017-09-08T02:10:44.195Z,91.70
2017-09-08T02:11:47.059Z,91.60
2017-09-08T02:12:49.712Z,91.60
2017-09-08T02:13:52.849Z,91.60
2017-09-08T02:14:55.602Z,91.70
2017-09-08T02:15:58.188Z,91.70
2017-09-08T02:17:03.940Z,91.70
2017-09-08T02:18:06.573Z,91.70
2017-09-08T02:19:09.140Z,91.60
2017-09-08T02:20:11.699Z,91.70
2017-09-08T02:21:14.435Z,91.70
2017-09-08T02:22:16.990Z,91.60
2017-09-08T02:23:19.526Z,91.60
2017-09-08T02:24:22.111Z,91.70
2017-09-08T02:25:24.762Z,91.70
2017-09-08T02:26:27.249Z,91.60
2017-09-08T02:27:29.766Z,91.60
2017-09-08T02:28:32.447Z,91.60
2017-09-08T02:29:34.975Z,91.90
2017-09-08T02:30:38.291Z,91.60
2017-09-08T02:31:40.817Z,91.50
2017-09-08T02:32:43.335Z,91.50
2017-09-08T02:33:45.867Z,91.50
2017-09-08T02:34:48.522Z,91.60
2017-09-08T02:35:51.011Z,91.60
2017-09-08T02:36:53.492Z,91.60
2017-09-08T02:37:56.018Z,91.80
2017-09-08T02:38:58.540Z,91.70
2017-09-08T02:40:01.567Z,91.70
2017-09-08T02:41:04.071Z,91.70
2017-09-08T02:42:06.564Z,91.80
2017-09-08T02:43:09.056Z,91.90
2017-09-08T02:44:11.534Z,91.90
2017-09-08T02:45:15.806Z,92.00
2017-09-08T02:46:18.329Z,92.00
2017-09-08T02:47:20.841Z,91.90
2017-09-08T02:48:23.368Z,91.90
2017-09-08T02:49:25.866Z,91.90
2017-09-08T02:50:33.632Z,91.80
2017-09-08T02:51:36.142Z,91.80
2017-09-08T02:52:38.652Z,91.80
2017-09-08T02:53:43.002Z,91.70
2017-09-08T02:54:45.899Z,91.80
2017-09-08T02:55:48.408Z,91.80
2017-09-08T02:56:54.998Z,91.80
2017-09-08T02:57:57.504Z,91.70
2017-09-08T02:59:00.053Z,91.80
2017-09-08T03:00:03.622Z,91.90
2017-09-08T03:01:06.746Z,91.80
2017-09-08T03:02:10.034Z,91.70
2017-09-08T03:03:12.604Z,91.70
2017-09-08T03:04:15.106Z,91.70
2017-09-08T03:05:17.634Z,91.60
2017-09-08T03:06:20.175Z,91.30
2017-09-08T03:07:22.710Z,91.30
2017-09-08T03:08:25.263Z,91.10
2017-09-08T03:09:27.750Z,91.10
2017-09-08T03:10:30.248Z,91.00
2017-09-08T03:11:32.783Z,90.90
2017-09-08T03:12:35.291Z,90.90
2017-09-08T03:13:37.819Z,91.00
2017-09-08T03:14:41.155Z,90.90
2017-09-08T03:15:43.680Z,90.80
2017-09-08T03:16:50.054Z,90.60
2017-09-08T03:17:52.536Z,90.50
2017-09-08T03:18:55.943Z,90.50
2017-09-08T03:19:59.568Z,90.60
2017-09-08T03:21:02.908Z,90.50
2017-09-08T03:22:05.444Z,90.50
2017-09-08T03:23:08.798Z,90.40
2017-09-08T03:24:11.292Z,90.20
2017-09-08T03:25:13.784Z,90.20
2017-09-08T03:26:16.287Z,90.10
2017-09-08T03:27:19.722Z,90.00
2017-09-08T03:28:22.240Z,89.90
2017-09-08T03:29:26.047Z,90.30
2017-09-08T03:30:28.583Z,90.20
2017-09-08T03:31:31.278Z,89.60
2017-09-08T03:32:33.791Z,89.90
2017-09-08T03:33:36.311Z,89.60
2017-09-08T03:34:43.392Z,89.90
2017-09-08T03:35:45.886Z,89.90
2017-09-08T03:36:49.394Z,89.90
2017-09-08T03:37:52.980Z,89.10
2017-09-08T03:38:55.701Z,89.40
2017-09-08T03:39:59.901Z,89.30
2017-09-08T03:41:02.427Z,89.00
2017-09-08T03:42:04.968Z,89.30
2017-09-08T03:43:07.460Z,89.30
2017-09-08T03:44:10.940Z,89.00
2017-09-08T03:45:14.203Z,89.00
2017-09-08T03:46:16.692Z,89.20
2017-09-08T03:47:19.228Z,89.40
2017-09-08T03:48:21.725Z,89.00
2017-09-08T03:49:24.234Z,88.80
2017-09-08T03:50:26.770Z,89.00
2017-09-08T03:51:29.288Z,89.00
2017-09-08T03:52:31.790Z,88.60
2017-09-08T03:53:38.580Z,89.10
2017-09-08T03:54:41.088Z,88.40
2017-09-08T03:55:43.607Z,88.40
2017-09-08T03:56:46.139Z,88.60
2017-09-08T03:57:48.640Z,88.90
2017-09-08T03:58:51.718Z,88.70
2017-09-08T03:59:54.201Z,88.60
2017-09-08T04:00:56.732Z,88.40
2017-09-08T04:01:59.270Z,88.40
2017-09-08T04:03:02.236Z,88.00
2017-09-08T04:04:04.715Z,88.30
2017-09-08T04:05:07.224Z,88.20
2017-09-08T04:06:09.819Z,87.70
2017-09-08T04:07:16.584Z,87.70
2017-09-08T04:08:19.078Z,87.60
2017-09-08T04:09:21.603Z,87.70
2017-09-08T04:10:27.740Z,87.20
2017-09-08T04:11:30.533Z,87.10
2017-09-08T04:12:33.118Z,87.00
2017-09-08T04:13:35.634Z,87.00
2017-09-08T04:14:38.195Z,87.00
2017-09-08T04:15:41.724Z,86.70
2017-09-08T04:16:44.239Z,86.90
2017-09-08T04:17:46.748Z,87.00
2017-09-08T04:18:49.231Z,87.10
2017-09-08T04:19:51.766Z,87.00
2017-09-08T04:20:54.312Z,87.10
2017-09-08T04:21:56.802Z,87.40
2017-09-08T04:23:03.486Z,87.30
2017-09-08T04:24:06.762Z,87.50
2017-09-08T04:25:09.254Z,86.90
2017-09-08T04:26:12.192Z,86.90
2017-09-08T04:27:15.618Z,87.40
2017-09-08T04:28:18.172Z,87.40
2017-09-08T04:29:20.683Z,87.80
2017-09-08T04:30:23.163Z,87.60
2017-09-08T04:31:26.355Z,87.70
2017-09-08T04:32:29.410Z,88.00
2017-09-08T04:33:32.865Z,87.90
2017-09-08T04:34:35.467Z,88.10
2017-09-08T04:35:38.142Z,88.00
2017-09-08T04:36:40.641Z,87.90
2017-09-08T04:37:46.716Z,87.90
2017-09-08T04:38:49.279Z,87.90
2017-09-08T04:39:56.686Z,88.20
2017-09-08T04:40:59.206Z,88.10
2017-09-08T04:42:02.673Z,88.30
2017-09-08T04:43:09.104Z,88.20
2017-09-08T04:44:13.371Z,88.50
2017-09-08T04:45:16.551Z,88.70
2017-09-08T04:46:19.051Z,88.50
2017-09-08T04:47:26.239Z,88.00
2017-09-08T04:48:28.765Z,88.50
2017-09-08T04:49:31.273Z,88.50
2017-09-08T04:50:34.571Z,88.80
2017-09-08T04:51:37.050Z,88.50
2017-09-08T04:52:44.109Z,88.60
2017-09-08T04:53:50.845Z,88.80
2017-09-08T04:54:55.261Z,89.00
2017-09-08T04:55:57.801Z,88.60
2017-09-08T04:57:00.315Z,89.20
2017-09-08T04:58:06.880Z,89.00
2017-09-08T04:59:10.305Z,88.90
2017-09-08T05:00:12.865Z,89.00
2017-09-08T05:01:15.472Z,89.20
2017-09-08T05:02:22.495Z,89.50
2017-09-08T05:03:25.050Z,89.30
2017-09-08T05:04:27.603Z,89.20
2017-09-08T05:05:31.835Z,89.00
2017-09-08T05:06:34.370Z,89.20
2017-09-08T05:07:36.937Z,89.10
2017-09-08T05:08:39.467Z,89.10
2017-09-08T05:09:42.012Z,89.10
2017-09-08T05:10:45.248Z,89.30
2017-09-08T05:11:48.307Z,89.30
2017-09-08T05:12:50.822Z,89.30
2017-09-08T05:13:53.362Z,89.40
2017-09-08T05:14:57.747Z,89.20
2017-09-08T05:16:00.240Z,89.20
2017-09-08T05:17:03.599Z,89.40
2017-09-08T05:18:10.973Z,89.10
2017-09-08T05:19:13.470Z,89.20
2017-09-08T05:20:15.985Z,89.70
2017-09-08T05:21:18.491Z,89.70
2017-09-08T05:22:21.027Z,89.60
2017-09-08T05:23:23.587Z,89.80
2017-09-08T05:24:26.084Z,89.90
2017-09-08T05:25:28.577Z,89.90
2017-09-08T05:26:35.646Z,90.00
2017-09-08T05:27:38.178Z,90.00
2017-09-08T05:28:40.707Z,89.60
2017-09-08T05:29:44.122Z,89.70
2017-09-08T05:30:46.647Z,89.90
2017-09-08T05:31:49.250Z,89.90
2017-09-08T05:32:51.756Z,89.90
2017-09-08T05:33:54.239Z,89.70
2017-09-08T05:34:56.842Z,89.70
2017-09-08T05:35:59.342Z,89.70
2017-09-08T05:37:01.869Z,89.50
2017-09-08T05:38:04.816Z,90.10
2017-09-08T05:39:12.306Z,89.60
2017-09-08T05:40:15.612Z,89.10
2017-09-08T05:41:22.722Z,88.90
2017-09-08T05:42:25.355Z,88.90
2017-09-08T05:43:27.878Z,89.00
2017-09-08T05:44:31.136Z,89.00
2017-09-08T05:45:33.646Z,88.80
2017-09-08T05:46:36.591Z,89.00
2017-09-08T05:47:39.162Z,89.10
2017-09-08T05:48:41.782Z,89.10
2017-09-08T05:49:44.367Z,89.20
2017-09-08T05:50:47.372Z,89.10
2017-09-08T05:51:50.560Z,88.80
2017-09-08T05:52:57.314Z,88.20
2017-09-08T05:53:59.791Z,88.40
2017-09-08T05:55:02.343Z,88.40
2017-09-08T05:56:04.841Z,88.40
2017-09-08T05:57:09.181Z,88.40
2017-09-08T05:58:11.715Z,88.60
2017-09-08T05:59:15.117Z,88.70
2017-09-08T06:00:18.711Z,88.90
2017-09-08T06:01:21.219Z,88.90
2017-09-08T06:02:23.785Z,88.50
2017-09-08T06:03:26.334Z,88.40
2017-09-08T06:04:33.524Z,88.30
2017-09-08T06:05:36.951Z,88.10
2017-09-08T06:07:31.503Z,88.30
2017-09-08T06:08:34.051Z,88.00
2017-09-08T06:09:36.627Z,87.70
2017-09-08T06:10:39.163Z,88.40
2017-09-08T06:11:45.667Z,88.50
2017-09-08T06:12:52.794Z,88.00
2017-09-08T06:13:55.905Z,88.00
2017-09-08T06:14:58.378Z,87.80
2017-09-08T06:16:00.998Z,87.50
2017-09-08T06:17:05.702Z,86.90
2017-09-08T06:18:08.210Z,86.60
2017-09-08T06:19:10.783Z,87.00
2017-09-08T06:20:14.214Z,87.30
2017-09-08T06:21:17.517Z,86.70
2017-09-08T06:22:20.031Z,86.60
2017-09-08T06:23:22.560Z,86.70
2017-09-08T06:24:29.440Z,86.40
2017-09-08T06:25:32.963Z,86.60
2017-09-08T06:26:35.496Z,87.20
2017-09-08T06:27:37.984Z,86.20
2017-09-08T06:28:40.465Z,86.00
2017-09-08T06:29:47.479Z,85.40
2017-09-08T06:30:50.038Z,85.20
2017-09-08T06:31:52.566Z,84.90
2017-09-08T06:32:55.869Z,84.70
2017-09-08T06:34:00.322Z,84.70
2017-09-08T06:35:02.876Z,84.70
2017-09-08T06:36:05.451Z,84.00
2017-09-08T06:37:08.003Z,83.90
2017-09-08T06:38:14.971Z,84.10
2017-09-08T06:39:17.571Z,83.60
2017-09-08T06:40:20.042Z,83.30
2017-09-08T06:41:22.610Z,82.80
2017-09-08T06:42:25.126Z,82.80
2017-09-08T06:43:27.619Z,83.20
2017-09-08T06:44:30.160Z,83.50
2017-09-08T06:45:32.688Z,83.20
2017-09-08T06:46:36.000Z,83.10
2017-09-08T06:47:38.486Z,82.90
2017-09-08T06:48:41.591Z,82.70
2017-09-08T06:49:44.141Z,82.40
2017-09-08T06:50:47.643Z,82.10
2017-09-08T06:51:50.179Z,82.30
2017-09-08T06:53:01.866Z,82.20
2017-09-08T06:54:04.604Z,82.20
2017-09-08T06:55:07.219Z,77.90
2017-09-08T06:56:09.730Z,76.50
2017-09-08T06:57:18.292Z,76.50
2017-09-08T06:58:20.871Z,71.90
2017-09-08T06:59:24.394Z,70.60
2017-09-08T07:00:27.688Z,70.70
2017-09-08T07:01:30.983Z,70.60
2017-09-08T07:02:33.524Z,70.60
2017-09-08T07:03:36.826Z,70.50
2017-09-08T07:04:39.388Z,70.50
2017-09-08T07:05:41.928Z,70.50
2017-09-08T07:06:48.319Z,70.40
2017-09-08T07:07:50.926Z,70.50
2017-09-08T07:08:53.505Z,70.40
2017-09-08T07:09:56.038Z,70.00
2017-09-08T07:10:58.596Z,69.90
2017-09-08T07:12:03.200Z,69.80
2017-09-08T07:13:05.719Z,69.80
2017-09-08T07:14:08.238Z,69.80
2017-09-08T07:15:11.478Z,69.80
2017-09-08T07:16:14.793Z,69.70
2017-09-08T07:17:17.307Z,69.60
2017-09-08T07:18:19.811Z,69.50
2017-09-08T07:19:22.320Z,69.60
2017-09-08T07:20:24.835Z,69.60
2017-09-08T07:21:34.071Z,69.60
2017-09-08T07:22:36.660Z,69.60
2017-09-08T07:23:39.660Z,69.70
2017-09-08T07:24:42.172Z,69.50
2017-09-08T07:25:49.932Z,69.30
2017-09-08T07:26:52.439Z,69.20
2017-09-08T07:27:59.076Z,69.30
2017-09-08T07:29:02.918Z,69.20
2017-09-08T07:30:05.467Z,69.20
2017-09-08T07:31:07.984Z,69.10
2017-09-08T07:32:10.542Z,69.20
2017-09-08T07:33:13.784Z,69.20
2017-09-08T07:34:16.340Z,69.20
2017-09-08T07:35:18.872Z,69.10
2017-09-08T07:36:21.441Z,70.10
2017-09-08T07:37:27.712Z,69.20
2017-09-08T07:38:31.018Z,69.10
2017-09-08T07:39:34.501Z,69.10
2017-09-08T07:40:37.052Z,69.10
2017-09-08T07:41:41.116Z,69.00
2017-09-08T07:42:44.517Z,69.00
2017-09-08T07:43:48.704Z,69.00
2017-09-08T07:44:51.245Z,69.00
2017-09-08T07:45:53.769Z,69.00
2017-09-08T07:46:57.073Z,68.90
2017-09-08T07:47:59.575Z,68.80
2017-09-08T07:49:02.897Z,68.60
2017-09-08T07:50:06.697Z,68.70
2017-09-08T07:51:11.361Z,68.60
2017-09-08T07:52:13.909Z,68.80
2017-09-08T07:53:16.409Z,68.70
2017-09-08T07:54:23.459Z,68.70
2017-09-08T07:55:25.963Z,68.80
2017-09-08T07:56:28.794Z,68.70
2017-09-08T07:57:31.311Z,68.70
2017-09-08T07:58:34.710Z,68.60
2017-09-08T07:59:41.124Z,68.60
2017-09-08T08:00:44.100Z,68.60
2017-09-08T08:01:46.610Z,68.60
2017-09-08T08:02:50.371Z,68.60
2017-09-08T08:03:52.995Z,68.60
2017-09-08T08:04:55.502Z,68.70
2017-09-08T08:05:59.699Z,68.60
2017-09-08T08:07:08.846Z,68.90
2017-09-08T08:08:11.692Z,69.00
2017-09-08T08:09:14.218Z,69.00
2017-09-08T08:10:16.810Z,69.00
2017-09-08T08:11:21.344Z,69.20
2017-09-08T08:12:23.837Z,69.00
2017-09-08T08:13:37.719Z,69.10
2017-09-08T08:14:44.850Z,69.10
2017-09-08T08:15:47.380Z,68.90
2017-09-08T08:16:54.342Z,68.80
2017-09-08T08:17:57.850Z,68.80
2017-09-08T08:19:00.385Z,68.80
2017-09-08T08:20:02.978Z,68.80
2017-09-08T08:21:06.566Z,68.70
2017-09-08T08:22:09.148Z,68.60
2017-09-08T08:23:12.188Z,68.70
2017-09-08T08:24:16.172Z,68.80
2017-09-08T08:25:18.711Z,68.80
2017-09-08T08:26:21.673Z,68.90
2017-09-08T08:27:24.924Z,69.00
2017-09-08T08:28:27.695Z,68.90
2017-09-08T08:29:30.169Z,69.20
2017-09-08T08:30:32.708Z,68.90
2017-09-08T08:31:35.224Z,68.90
2017-09-08T08:32:38.528Z,68.90
2017-09-08T08:33:41.139Z,68.70
2017-09-08T08:34:43.852Z,68.80
2017-09-08T08:35:47.189Z,68.80
2017-09-08T08:36:49.704Z,68.80
2017-09-08T08:37:52.980Z,68.90
2017-09-08T08:38:56.280Z,68.90
2017-09-08T08:39:59.413Z,68.80
2017-09-08T08:41:03.873Z,68.90
2017-09-08T08:42:06.934Z,68.80
2017-09-08T08:43:10.616Z,68.80
2017-09-08T08:44:13.671Z,68.80
2017-09-08T08:45:16.243Z,68.90
2017-09-08T08:46:19.226Z,68.80
2017-09-08T08:47:21.700Z,68.90
2017-09-08T08:48:24.972Z,68.80
2017-09-08T08:49:27.466Z,68.80
2017-09-08T08:50:29.999Z,68.60
2017-09-08T08:51:32.582Z,68.60
2017-09-08T08:52:35.758Z,68.40
2017-09-08T08:53:39.033Z,68.50
2017-09-08T08:54:45.682Z,68.40
2017-09-08T08:55:48.567Z,68.60
2017-09-08T08:56:51.184Z,68.70
2017-09-08T08:57:54.189Z,68.80
2017-09-08T08:58:57.210Z,68.90
2017-09-08T09:00:04.266Z,69.20
2017-09-08T09:01:06.844Z,69.00
2017-09-08T09:02:10.718Z,69.10
2017-09-08T09:03:13.298Z,69.10
2017-09-08T09:04:15.784Z,69.00
2017-09-08T09:05:19.376Z,69.00
2017-09-08T09:06:26.513Z,68.80
2017-09-08T09:07:29.051Z,68.80
2017-09-08T09:08:31.572Z,69.00
2017-09-08T09:09:34.894Z,69.60
2017-09-08T09:10:37.748Z,69.20
2017-09-08T09:11:44.140Z,69.20
2017-09-08T09:12:48.252Z,69.80
2017-09-08T09:13:51.015Z,69.10
2017-09-08T09:14:53.600Z,69.10
2017-09-08T09:15:56.105Z,69.20
2017-09-08T09:16:59.551Z,68.90
2017-09-08T09:18:02.329Z,68.90
2017-09-08T09:19:04.922Z,68.80
2017-09-08T09:20:07.870Z,68.80
2017-09-08T09:21:10.467Z,68.80
2017-09-08T09:22:13.042Z,68.80
2017-09-08T09:23:15.768Z,68.80
2017-09-08T09:24:18.364Z,68.80
2017-09-08T09:25:22.386Z,68.90
2017-09-08T09:26:29.007Z,68.90
2017-09-08T09:27:31.635Z,69.00
2017-09-08T09:28:34.150Z,69.00
2017-09-08T09:29:36.646Z,69.20
2017-09-08T09:30:39.167Z,69.50
2017-09-08T09:31:41.874Z,70.60
2017-09-08T09:32:45.254Z,70.30
2017-09-08T09:33:48.534Z,70.60
2017-09-08T09:34:51.083Z,70.70
2017-09-08T09:35:58.244Z,71.30
2017-09-08T09:37:00.753Z,71.00
2017-09-08T09:38:03.950Z,71.20
2017-09-08T09:39:06.443Z,71.80
2017-09-08T09:40:09.610Z,71.70
2017-09-08T09:41:12.250Z,71.80
2017-09-08T09:42:16.381Z,72.10
2017-09-08T09:43:19.581Z,71.90
2017-09-08T09:44:22.156Z,72.30
2017-09-08T09:45:28.693Z,72.70
2017-09-08T09:46:31.459Z,72.70
2017-09-08T09:47:34.013Z,72.80
2017-09-08T09:48:36.498Z,72.70
2017-09-08T09:49:39.039Z,72.90
2017-09-08T09:50:42.811Z,73.90
2017-09-08T09:51:46.121Z,73.20
2017-09-08T09:52:48.648Z,73.20
2017-09-08T09:53:51.184Z,73.30
2017-09-08T09:54:54.511Z,73.40
2017-09-08T09:55:57.799Z,73.40
2017-09-08T09:57:05.488Z,73.20
2017-09-08T09:58:08.368Z,73.20
2017-09-08T09:59:11.024Z,73.40
2017-09-08T10:00:17.470Z,73.30
2017-09-08T10:01:20.736Z,73.50
2017-09-08T10:02:23.330Z,73.30
2017-09-08T10:03:27.124Z,73.60
2017-09-08T10:04:30.924Z,74.10
2017-09-08T10:05:33.470Z,74.10
2017-09-08T10:06:35.948Z,74.40
2017-09-08T10:07:38.475Z,74.50
2017-09-08T10:08:41.050Z,74.30
2017-09-08T10:09:43.621Z,74.30
2017-09-08T10:10:46.114Z,74.30
2017-09-08T10:11:50.295Z,74.70
2017-09-08T10:12:52.799Z,74.70
2017-09-08T10:13:55.319Z,75.00
2017-09-08T10:14:57.815Z,75.00
2017-09-08T10:16:00.674Z,75.20
2017-09-08T10:17:03.170Z,75.00
2017-09-08T10:18:05.680Z,75.00
2017-09-08T10:19:08.300Z,74.90
2017-09-08T10:20:12.388Z,75.20
2017-09-08T10:21:15.672Z,74.60
2017-09-08T10:22:19.010Z,74.50
2017-09-08T10:23:21.539Z,74.50
2017-09-08T10:24:25.644Z,74.50
2017-09-08T10:25:28.188Z,74.70
2017-09-08T10:26:31.468Z,74.70
2017-09-08T10:27:34.715Z,74.70
2017-09-08T10:28:37.603Z,74.60
2017-09-08T10:29:40.271Z,75.00
2017-09-08T10:30:47.090Z,74.80
2017-09-08T10:31:49.625Z,74.90
2017-09-08T10:32:53.063Z,74.70
2017-09-08T10:34:02.272Z,74.70
2017-09-08T10:35:04.913Z,74.80
2017-09-08T10:36:08.322Z,74.80
2017-09-08T10:37:10.899Z,74.80
2017-09-08T10:38:14.061Z,74.70
2017-09-08T10:39:16.616Z,74.50
2017-09-08T10:40:19.874Z,74.40
2017-09-08T10:41:26.783Z,74.40
2017-09-08T10:42:29.291Z,74.50
2017-09-08T10:43:31.802Z,74.40
2017-09-08T10:44:34.372Z,74.10
2017-09-08T10:45:36.910Z,74.50
2017-09-08T10:46:39.447Z,74.60
2017-09-08T10:47:41.970Z,74.50
2017-09-08T10:48:44.535Z,74.60
2017-09-08T10:49:47.083Z,74.50
2017-09-08T10:50:50.779Z,74.40
2017-09-08T10:51:54.239Z,74.30
2017-09-08T10:52:56.763Z,74.30
2017-09-08T10:53:59.283Z,74.10
2017-09-08T10:55:01.786Z,74.20
2017-09-08T10:56:04.315Z,74.00
2017-09-08T10:57:09.438Z,74.60
2017-09-08T10:58:12.148Z,74.10
2017-09-08T10:59:15.152Z,74.20
2017-09-08T11:00:18.078Z,74.00
2017-09-08T11:01:20.645Z,74.20
2017-09-08T11:02:23.941Z,74.20
2017-09-08T11:03:26.494Z,74.10
2017-09-08T11:04:29.867Z,74.10
2017-09-08T11:05:32.381Z,74.10
2017-09-08T11:06:34.965Z,74.10
2017-09-08T11:07:39.364Z,74.20
2017-09-08T11:08:41.949Z,74.30
2017-09-08T11:09:44.456Z,74.40
2017-09-08T11:10:47.987Z,74.60
2017-09-08T11:11:50.570Z,74.60
2017-09-08T11:12:53.074Z,74.60
2017-09-08T11:13:56.411Z,74.90
2017-09-08T11:14:58.958Z,74.90
2017-09-08T11:16:01.503Z,75.20
2017-09-08T11:17:04.035Z,75.10
2017-09-08T11:18:06.621Z,75.20
2017-09-08T11:19:11.020Z,75.30
2017-09-08T11:20:13.691Z,75.30
2017-09-08T11:21:16.370Z,75.20
2017-09-08T11:22:19.047Z,75.20
2017-09-08T11:23:22.310Z,75.40
2017-09-08T11:24:24.875Z,75.40
2017-09-08T11:25:31.872Z,75.40
2017-09-08T11:26:34.947Z,75.40
2017-09-08T11:27:38.236Z,75.60
2017-09-08T11:28:40.755Z,75.50
2017-09-08T11:29:47.631Z,75.80
2017-09-08T11:30:50.219Z,75.70
2017-09-08T11:31:57.266Z,76.00
2017-09-08T11:33:08.509Z,75.70
2017-09-08T11:34:18.398Z,75.70
2017-09-08T11:35:28.309Z,75.80
2017-09-08T11:36:37.429Z,76.20
2017-09-08T11:37:40.383Z,76.20
2017-09-08T11:38:48.022Z,76.40
2017-09-08T11:39:51.470Z,76.30
2017-09-08T11:40:53.996Z,76.30
2017-09-08T11:41:56.552Z,76.50
2017-09-08T11:43:05.695Z,76.50
2017-09-08T11:44:09.761Z,76.50
2017-09-08T11:45:13.551Z,76.30
2017-09-08T11:46:17.528Z,76.20
2017-09-08T11:47:20.016Z,76.10
2017-09-08T11:48:29.589Z,76.40
2017-09-08T11:49:32.092Z,76.30
2017-09-08T11:50:35.379Z,76.40
2017-09-08T11:51:38.508Z,76.40
2017-09-08T11:52:41.005Z,76.40
2017-09-08T11:53:43.498Z,76.40
2017-09-08T11:54:46.003Z,76.50
2017-09-08T11:55:48.495Z,77.00
2017-09-08T11:56:50.983Z,76.70
2017-09-08T11:57:53.538Z,76.80
2017-09-08T11:58:56.041Z,76.80
2017-09-08T12:00:00.222Z,77.10
2017-09-08T12:01:02.742Z,77.00
2017-09-08T12:02:05.293Z,76.90
2017-09-08T12:03:08.074Z,77.10
2017-09-08T12:04:10.869Z,77.10
2017-09-08T12:05:13.450Z,77.00
2017-09-08T12:06:15.962Z,77.10
2017-09-08T12:07:18.474Z,77.00
2017-09-08T12:08:20.990Z,76.80
2017-09-08T12:09:23.499Z,76.90
2017-09-08T12:10:26.032Z,77.00
2017-09-08T12:11:28.591Z,77.40
2017-09-08T12:12:31.081Z,77.00
2017-09-08T12:13:33.696Z,76.90
2017-09-08T12:14:36.220Z,76.80
2017-09-08T12:15:38.754Z,76.80
2017-09-08T12:16:41.379Z,76.90
2017-09-08T12:17:43.892Z,77.00
2017-09-08T12:18:46.429Z,77.10
2017-09-08T12:19:49.723Z,77.20
2017-09-08T12:20:53.127Z,77.40
2017-09-08T12:21:55.665Z,77.30
2017-09-08T12:22:58.162Z,77.20
2017-09-08T12:24:00.688Z,77.10
2017-09-08T12:25:04.136Z,77.00
2017-09-08T12:26:07.407Z,77.20
2017-09-08T12:27:09.915Z,77.30
2017-09-08T12:28:13.074Z,77.40
2017-09-08T12:29:15.616Z,77.60
2017-09-08T12:30:18.120Z,77.60
2017-09-08T12:31:20.756Z,77.60
2017-09-08T12:32:23.259Z,77.70
2017-09-08T12:33:25.859Z,77.70
2017-09-08T12:34:29.131Z,77.90
2017-09-08T12:35:32.408Z,78.00
2017-09-08T12:36:34.900Z,78.00
2017-09-08T12:37:38.006Z,78.20
2017-09-08T12:38:40.647Z,78.10
2017-09-08T12:39:43.162Z,78.40
2017-09-08T12:40:45.654Z,78.10
2017-09-08T12:41:52.819Z,78.00
2017-09-08T12:42:55.334Z,78.00
2017-09-08T12:43:57.834Z,78.70
2017-09-08T12:45:00.969Z,78.10
2017-09-08T12:46:04.074Z,78.10
2017-09-08T12:47:07.630Z,78.10
2017-09-08T12:48:12.180Z,78.30
2017-09-08T12:49:14.707Z,78.20
2017-09-08T12:50:18.039Z,78.30
2017-09-08T12:51:25.043Z,78.30
2017-09-08T12:52:29.453Z,78.70
2017-09-08T12:53:32.753Z,78.30
2017-09-08T12:54:36.112Z,78.20
2017-09-08T12:55:39.301Z,78.10
2017-09-08T12:56:42.354Z,78.20
2017-09-08T12:57:45.915Z,78.50
2017-09-08T12:58:48.449Z,78.50
2017-09-08T12:59:50.975Z,79.20
2017-09-08T13:00:53.525Z,78.70
2017-09-08T13:01:56.054Z,78.70
2017-09-08T13:03:00.663Z,78.60
2017-09-08T13:04:03.993Z,78.50
2017-09-08T13:05:06.577Z,78.50
2017-09-08T13:12:50.815Z,79.60
2017-09-08T13:13:54.083Z,79.00
2017-09-08T13:14:57.362Z,79.10
2017-09-08T13:16:00.647Z,79.40
2017-09-08T13:17:03.207Z,79.10
2017-09-08T13:18:06.515Z,79.10
2017-09-08T13:19:09.042Z,79.10
2017-09-08T13:20:11.755Z,79.00
2017-09-08T13:21:14.305Z,79.60
2017-09-08T13:22:17.645Z,78.90
2017-09-08T13:23:20.180Z,78.80
2017-09-08T13:24:22.729Z,79.10
2017-09-08T13:27:09.697Z,79.20
2017-09-08T13:28:23.844Z,79.20
2017-09-08T13:29:36.149Z,79.10
2017-09-08T13:30:39.452Z,79.00
2017-09-08T13:33:47.888Z,79.10
2017-09-08T13:34:58.202Z,79.10
2017-09-08T13:36:06.161Z,79.10
2017-09-08T13:37:19.797Z,80.20
2017-09-08T13:38:28.914Z,80.00
2017-09-08T13:39:42.534Z,79.30
2017-09-08T13:40:45.675Z,79.20
2017-09-08T13:41:48.376Z,79.10
2017-09-08T13:42:51.379Z,79.40
2017-09-08T13:43:54.690Z,79.50
2017-09-08T13:45:02.466Z,79.90
2017-09-08T13:46:07.159Z,79.80
2017-09-08T13:47:15.472Z,79.50